首页
METAR-TAF:

METAR-TAF

机场 :

Mineral Wells Airport

Mineral Wells, 得克萨斯州, 美国

纬度: 32-46-54N, 经度: 098-03-37W, 海拔: 297米

当前天气观测

该预报发布于1小时和3分钟前的15:53 UTC
风速4节,风向
温度 27°C
湿度 74%
气压 1017 hPa
能見度: 16.1公里
少量云层高于1500英尺

METAR: KMWL 221553Z AUTO 01004KT 10SM FEW015 27/22 A3003 RMK AO2 SLP156 T02670217 $

时间: 11:56 (16:56 UTC)


TAF: 丢失

超过4000个机场的气象观测和天气预报(METAR&TAF报告)。

可查询的气象台以黄色和红色小点在地图上表示。

将鼠标移到小点上方,可查看气象台名称。

然后点击查看天气观测和预报。

如需切换地图:点击带黑十字的绿色按钮放大地图;点击带横线的绿色按钮缩小地图;或者点击绿色箭头查看邻近地区的地图。


METAR-TAF: